KOLV

Olive Branch Airport

Olive Branch, Mississippi, USA
METAR KOLV 170050Z 19008KT 10SM FEW070 SCT250 30/24 A2999
Observed Flight Rules
Aug-17 @ 00:50 UTC (3 hours ago) Visual Flight Rules
Wind Visibility Clouds
190° at 8 knots 10 miles
  • Few at 7,000' AGL
  • Scattered at 25,000' AGL
Temperatures Readings
Current 30°C / 86°F
Dewpoint 24°C / 75°F
Humidity 70%
Altimeter 29.99" Hg
Pressure 1016 hPa
Elevation 122
METAR KOLV 170050Z 19008KT 10SM FEW070 SCT250 30/24 A2999
Observed Flight Rules
Aug-17 @ 00:50 UTC
(3 hours ago)
VFR
Wind Visibility
190° at 8 knots 10 miles
Clouds
  • Few at 7,000' AGL
  • Scattered at 25,000' AGL
Temperature Dewpoint
30°C / 86°F 24°C / 75°F
Humidity Altimeter Pressure
70% 29.99" Hg 1016 hPa